sensor_id;sensor_type;location;lat;lon;timestamp;pressure;altitude;pressure_sealevel;temperature;humidity
54503;BME280;40411;50.090;21.954;2024-02-23T00:00:52;64558.84;;;11.44;79.06
54503;BME280;40411;50.090;21.954;2024-02-23T00:03:38;64460.91;;;11.83;77.33
54503;BME280;40411;50.090;21.954;2024-02-23T00:06:04;64438.63;;;12.04;76.77
54503;BME280;40411;50.090;21.954;2024-02-23T00:08:30;64525.44;;;11.78;77.33
54503;BME280;40411;50.090;21.954;2024-02-23T00:10:56;64437.13;;;11.88;77.17
54503;BME280;40411;50.090;21.954;2024-02-23T00:13:22;64516.88;;;11.75;76.94
54503;BME280;40411;50.090;21.954;2024-02-23T00:15:48;64418.00;;;11.92;76.96
54503;BME280;40411;50.090;21.954;2024-02-23T00:18:14;64352.50;;;12.26;75.62
54503;BME280;40411;50.090;21.954;2024-02-23T00:20:41;64428.78;;;11.97;76.51
54503;BME280;40411;50.090;21.954;2024-02-23T00:23:07;64423.66;;;12.17;75.64
54503;BME280;40411;50.090;21.954;2024-02-23T00:25:33;64348.16;;;12.41;74.76
54503;BME280;40411;50.090;21.954;2024-02-23T00:27:59;64393.38;;;12.18;74.63
54503;BME280;40411;50.090;21.954;2024-02-23T00:30:25;64367.00;;;12.32;74.40
54503;BME280;40411;50.090;21.954;2024-02-23T00:32:51;64420.25;;;12.21;74.76
54503;BME280;40411;50.090;21.954;2024-02-23T00:35:16;64383.09;;;12.30;74.67
54503;BME280;40411;50.090;21.954;2024-02-23T00:37:42;64372.53;;;12.37;74.05
54503;BME280;40411;50.090;21.954;2024-02-23T00:40:09;64449.84;;;12.17;74.39
54503;BME280;40411;50.090;21.954;2024-02-23T00:42:35;64379.47;;;12.48;73.50
54503;BME280;40411;50.090;21.954;2024-02-23T00:45:02;64309.66;;;12.83;70.83
54503;BME280;40411;50.090;21.954;2024-02-23T00:47:28;64349.97;;;12.45;73.33
54503;BME280;40411;50.090;21.954;2024-02-23T00:49:54;64466.63;;;11.91;75.50
54503;BME280;40411;50.090;21.954;2024-02-23T00:52:20;64456.91;;;12.21;73.61
54503;BME280;40411;50.090;21.954;2024-02-23T00:54:46;64303.03;;;12.77;71.66
54503;BME280;40411;50.090;21.954;2024-02-23T00:57:11;64329.47;;;12.63;72.62
54503;BME280;40411;50.090;21.954;2024-02-23T00:59:37;64416.63;;;12.39;72.88
54503;BME280;40411;50.090;21.954;2024-02-23T01:02:03;64421.75;;;12.46;73.01
54503;BME280;40411;50.090;21.954;2024-02-23T01:04:30;64359.09;;;12.59;71.64
54503;BME280;40411;50.090;21.954;2024-02-23T01:06:57;64359.38;;;12.64;71.20
54503;BME280;40411;50.090;21.954;2024-02-23T01:09:24;64352.44;;;12.52;72.15
54503;BME280;40411;50.090;21.954;2024-02-23T01:11:49;64408.19;;;12.29;72.76
54503;BME280;40411;50.090;21.954;2024-02-23T01:14:15;64356.59;;;12.51;72.54
54503;BME280;40411;50.090;21.954;2024-02-23T01:16:41;64350.53;;;12.56;71.32
54503;BME280;40411;50.090;21.954;2024-02-23T01:19:07;64373.66;;;12.48;71.29
54503;BME280;40411;50.090;21.954;2024-02-23T01:21:34;64393.06;;;12.39;72.24
54503;BME280;40411;50.090;21.954;2024-02-23T01:24:00;64384.69;;;12.48;71.58
54503;BME280;40411;50.090;21.954;2024-02-23T01:26:26;64407.66;;;12.38;72.12
54503;BME280;40411;50.090;21.954;2024-02-23T01:28:53;64348.88;;;12.54;71.23
54503;BME280;40411;50.090;21.954;2024-02-23T01:31:19;64351.91;;;12.52;70.98
54503;BME280;40411;50.090;21.954;2024-02-23T01:33:45;64366.06;;;12.43;72.15
54503;BME280;40411;50.090;21.954;2024-02-23T01:36:11;64421.84;;;12.39;71.68
54503;BME280;40411;50.090;21.954;2024-02-23T01:38:37;64426.09;;;12.31;72.00
54503;BME280;40411;50.090;21.954;2024-02-23T01:41:03;64375.63;;;12.55;70.52
54503;BME280;40411;50.090;21.954;2024-02-23T01:43:29;64358.28;;;12.63;70.60
54503;BME280;40411;50.090;21.954;2024-02-23T01:45:55;64469.50;;;12.30;72.43
54503;BME280;40411;50.090;21.954;2024-02-23T01:48:21;64414.75;;;12.52;71.16
54503;BME280;40411;50.090;21.954;2024-02-23T01:50:47;64327.72;;;12.78;70.05
54503;BME280;40411;50.090;21.954;2024-02-23T01:53:13;64292.19;;;12.99;69.83
54503;BME280;40411;50.090;21.954;2024-02-23T01:55:41;64329.63;;;12.65;70.12
54503;BME280;40411;50.090;21.954;2024-02-23T01:58:10;64337.66;;;12.78;69.78
54503;BME280;40411;50.090;21.954;2024-02-23T02:00:36;64415.81;;;12.43;70.82
54503;BME280;40411;50.090;21.954;2024-02-23T02:03:03;64439.34;;;12.60;70.15
54503;BME280;40411;50.090;21.954;2024-02-23T02:05:29;64430.72;;;12.47;71.08
54503;BME280;40411;50.090;21.954;2024-02-23T02:07:56;64435.16;;;12.25;71.19
54503;BME280;40411;50.090;21.954;2024-02-23T02:10:25;64475.53;;;12.26;70.92
54503;BME280;40411;50.090;21.954;2024-02-23T02:12:52;64343.97;;;12.79;69.91
54503;BME280;40411;50.090;21.954;2024-02-23T02:15:18;64326.75;;;12.80;69.75
54503;BME280;40411;50.090;21.954;2024-02-23T02:17:45;64311.06;;;12.89;68.54
54503;BME280;40411;50.090;21.954;2024-02-23T02:20:12;64352.28;;;12.86;68.58
54503;BME280;40411;50.090;21.954;2024-02-23T02:22:39;64286.94;;;13.08;68.55
54503;BME280;40411;50.090;21.954;2024-02-23T02:25:06;64322.06;;;12.80;69.63
54503;BME280;40411;50.090;21.954;2024-02-23T02:27:32;64255.06;;;13.01;68.79
54503;BME280;40411;50.090;21.954;2024-02-23T02:29:58;64350.03;;;12.74;69.40
54503;BME280;40411;50.090;21.954;2024-02-23T02:32:24;64336.84;;;12.82;70.26
54503;BME280;40411;50.090;21.954;2024-02-23T02:34:50;64233.84;;;13.05;69.20
54503;BME280;40411;50.090;21.954;2024-02-23T02:37:16;64345.88;;;12.66;70.97
54503;BME280;40411;50.090;21.954;2024-02-23T02:39:42;64367.88;;;12.47;72.63
54503;BME280;40411;50.090;21.954;2024-02-23T02:42:08;64307.69;;;12.67;71.60
54503;BME280;40411;50.090;21.954;2024-02-23T02:44:34;64333.31;;;12.57;71.63
54503;BME280;40411;50.090;21.954;2024-02-23T02:47:00;64468.97;;;12.39;71.31
54503;BME280;40411;50.090;21.954;2024-02-23T02:49:26;64360.78;;;12.70;70.37
54503;BME280;40411;50.090;21.954;2024-02-23T02:51:52;64359.69;;;12.69;70.13
54503;BME280;40411;50.090;21.954;2024-02-23T02:54:18;64336.28;;;12.81;70.00
54503;BME280;40411;50.090;21.954;2024-02-23T02:56:45;64370.94;;;12.55;71.53
54503;BME280;40411;50.090;21.954;2024-02-23T02:59:16;64483.47;;;12.19;73.21
54503;BME280;40411;50.090;21.954;2024-02-23T03:01:44;64454.28;;;12.21;73.96
54503;BME280;40411;50.090;21.954;2024-02-23T03:04:09;64425.88;;;12.19;74.53
54503;BME280;40411;50.090;21.954;2024-02-23T03:06:35;64385.09;;;12.20;75.29
54503;BME280;40411;50.090;21.954;2024-02-23T03:09:01;64379.72;;;12.17;76.35
54503;BME280;40411;50.090;21.954;2024-02-23T03:11:28;64384.25;;;12.14;75.88
54503;BME280;40411;50.090;21.954;2024-02-23T03:13:54;64361.44;;;12.27;76.00
54503;BME280;40411;50.090;21.954;2024-02-23T03:16:20;64466.53;;;11.98;76.60
54503;BME280;40411;50.090;21.954;2024-02-23T03:18:48;64413.19;;;12.17;76.41
54503;BME280;40411;50.090;21.954;2024-02-23T03:21:15;64445.03;;;11.98;75.14
54503;BME280;40411;50.090;21.954;2024-02-23T03:23:41;64477.38;;;12.13;74.21
54503;BME280;40411;50.090;21.954;2024-02-23T03:26:08;64452.81;;;12.05;75.15
54503;BME280;40411;50.090;21.954;2024-02-23T03:28:33;64473.00;;;12.19;73.46
54503;BME280;40411;50.090;21.954;2024-02-23T03:31:00;64411.69;;;12.44;72.24
54503;BME280;40411;50.090;21.954;2024-02-23T03:33:25;64450.88;;;12.08;73.92
54503;BME280;40411;50.090;21.954;2024-02-23T03:35:51;64442.44;;;12.24;73.37
54503;BME280;40411;50.090;21.954;2024-02-23T03:38:17;64377.50;;;12.42;72.35
54503;BME280;40411;50.090;21.954;2024-02-23T03:40:43;64427.28;;;12.25;72.65
54503;BME280;40411;50.090;21.954;2024-02-23T03:43:09;64433.59;;;12.16;72.74
54503;BME280;40411;50.090;21.954;2024-02-23T03:45:35;64416.03;;;12.29;73.03
54503;BME280;40411;50.090;21.954;2024-02-23T03:48:03;64498.66;;;12.01;72.83
54503;BME280;40411;50.090;21.954;2024-02-23T03:50:30;64466.25;;;12.20;72.64
54503;BME280;40411;50.090;21.954;2024-02-23T03:52:56;64458.41;;;12.20;73.08
54503;BME280;40411;50.090;21.954;2024-02-23T03:55:22;64403.28;;;12.17;72.77
54503;BME280;40411;50.090;21.954;2024-02-23T03:57:48;64481.13;;;11.97;73.12
54503;BME280;40411;50.090;21.954;2024-02-23T04:00:14;64519.56;;;11.84;74.12
54503;BME280;40411;50.090;21.954;2024-02-23T04:02:41;64546.03;;;11.73;73.86
54503;BME280;40411;50.090;21.954;2024-02-23T04:05:07;64452.16;;;12.12;73.02
54503;BME280;40411;50.090;21.954;2024-02-23T04:07:33;64538.38;;;11.92;73.42
54503;BME280;40411;50.090;21.954;2024-02-23T04:09:59;64547.06;;;11.81;74.08
54503;BME280;40411;50.090;21.954;2024-02-23T04:12:25;64487.22;;;12.03;72.91
54503;BME280;40411;50.090;21.954;2024-02-23T04:14:51;64484.94;;;11.91;74.42
54503;BME280;40411;50.090;21.954;2024-02-23T04:17:16;64511.19;;;11.84;74.81
54503;BME280;40411;50.090;21.954;2024-02-23T04:19:43;64469.44;;;12.03;73.77
54503;BME280;40411;50.090;21.954;2024-02-23T04:22:09;64474.78;;;11.96;73.99
54503;BME280;40411;50.090;21.954;2024-02-23T04:24:38;64433.28;;;12.11;74.18
54503;BME280;40411;50.090;21.954;2024-02-23T04:27:05;64518.41;;;11.91;74.95
54503;BME280;40411;50.090;21.954;2024-02-23T04:29:31;64516.81;;;11.65;76.36
54503;BME280;40411;50.090;21.954;2024-02-23T04:32:01;64472.72;;;11.80;76.64
54503;BME280;40411;50.090;21.954;2024-02-23T04:34:27;64579.72;;;11.51;77.25
54503;BME280;40411;50.090;21.954;2024-02-23T04:36:53;64605.75;;;11.17;78.57
54503;BME280;40411;50.090;21.954;2024-02-23T04:39:20;64610.31;;;11.31;79.29
54503;BME280;40411;50.090;21.954;2024-02-23T04:41:46;64618.28;;;11.16;80.18
54503;BME280;40411;50.090;21.954;2024-02-23T04:44:12;64575.44;;;11.25;80.43
54503;BME280;40411;50.090;21.954;2024-02-23T04:46:37;64584.38;;;11.09;81.21
54503;BME280;40411;50.090;21.954;2024-02-23T04:49:04;64561.28;;;11.24;80.65
54503;BME280;40411;50.090;21.954;2024-02-23T04:51:29;64584.38;;;11.09;81.09
54503;BME280;40411;50.090;21.954;2024-02-23T04:53:55;64594.38;;;11.18;80.48
54503;BME280;40411;50.090;21.954;2024-02-23T04:56:21;64615.28;;;11.18;81.15
54503;BME280;40411;50.090;21.954;2024-02-23T04:58:47;64541.88;;;11.23;80.03
54503;BME280;40411;50.090;21.954;2024-02-23T05:01:13;64550.75;;;11.31;79.89
54503;BME280;40411;50.090;21.954;2024-02-23T05:03:39;64560.34;;;11.26;79.66
54503;BME280;40411;50.090;21.954;2024-02-23T05:06:05;64557.31;;;11.28;80.23
54503;BME280;40411;50.090;21.954;2024-02-23T05:08:31;64511.25;;;11.43;79.21
54503;BME280;40411;50.090;21.954;2024-02-23T05:10:57;64551.03;;;11.19;80.86
54503;BME280;40411;50.090;21.954;2024-02-23T05:13:24;64559.53;;;11.30;80.57
54503;BME280;40411;50.090;21.954;2024-02-23T05:15:50;64484.22;;;11.37;79.50
54503;BME280;40411;50.090;21.954;2024-02-23T05:18:16;64498.56;;;11.41;80.37
54503;BME280;40411;50.090;21.954;2024-02-23T05:20:42;64544.19;;;11.35;79.99
54503;BME280;40411;50.090;21.954;2024-02-23T05:23:08;64535.97;;;11.37;80.66
54503;BME280;40411;50.090;21.954;2024-02-23T05:25:34;64524.84;;;11.27;81.36
54503;BME280;40411;50.090;21.954;2024-02-23T05:28:00;64501.97;;;11.37;81.70
54503;BME280;40411;50.090;21.954;2024-02-23T05:30:26;64497.28;;;11.37;80.63
54503;BME280;40411;50.090;21.954;2024-02-23T05:32:53;64506.31;;;11.14;81.79
54503;BME280;40411;50.090;21.954;2024-02-23T05:35:19;64525.88;;;11.18;82.65
54503;BME280;40411;50.090;21.954;2024-02-23T05:37:45;64483.75;;;11.47;80.87
54503;BME280;40411;50.090;21.954;2024-02-23T05:40:10;64525.31;;;11.17;82.44
54503;BME280;40411;50.090;21.954;2024-02-23T05:42:37;64522.94;;;11.30;81.49
54503;BME280;40411;50.090;21.954;2024-02-23T05:45:03;64550.34;;;11.16;82.36
54503;BME280;40411;50.090;21.954;2024-02-23T05:47:30;64498.31;;;11.29;82.04
54503;BME280;40411;50.090;21.954;2024-02-23T05:49:56;64531.00;;;11.08;82.88
54503;BME280;40411;50.090;21.954;2024-02-23T05:52:23;64493.88;;;11.25;82.20
54503;BME280;40411;50.090;21.954;2024-02-23T05:54:48;64443.19;;;11.33;82.49
54503;BME280;40411;50.090;21.954;2024-02-23T05:57:14;64409.19;;;11.50;81.59
54503;BME280;40411;50.090;21.954;2024-02-23T05:59:40;64488.88;;;11.03;82.84
54503;BME280;40411;50.090;21.954;2024-02-23T06:02:06;64506.38;;;11.07;83.37
54503;BME280;40411;50.090;21.954;2024-02-23T06:04:32;64453.19;;;11.43;81.70
54503;BME280;40411;50.090;21.954;2024-02-23T06:06:58;64558.38;;;10.95;83.09
54503;BME280;40411;50.090;21.954;2024-02-23T06:09:24;64515.63;;;11.13;82.94
54503;BME280;40411;50.090;21.954;2024-02-23T06:11:50;64434.06;;;11.30;82.31
54503;BME280;40411;50.090;21.954;2024-02-23T06:14:15;64529.88;;;11.07;82.48
54503;BME280;40411;50.090;21.954;2024-02-23T06:16:42;64468.28;;;11.25;82.46
54503;BME280;40411;50.090;21.954;2024-02-23T06:19:16;64541.56;;;10.94;82.99
54503;BME280;40411;50.090;21.954;2024-02-23T06:21:42;64473.06;;;11.34;82.51
54503;BME280;40411;50.090;21.954;2024-02-23T06:24:08;64454.13;;;11.24;81.65
54503;BME280;40411;50.090;21.954;2024-02-23T06:26:34;64474.38;;;11.14;82.15
54503;BME280;40411;50.090;21.954;2024-02-23T06:29:00;64500.44;;;11.04;82.58
54503;BME280;40411;50.090;21.954;2024-02-23T06:31:26;64530.47;;;10.84;83.91
54503;BME280;40411;50.090;21.954;2024-02-23T06:33:52;64485.47;;;11.07;84.00
54503;BME280;40411;50.090;21.954;2024-02-23T06:36:18;64504.09;;;11.12;83.60
54503;BME280;40411;50.090;21.954;2024-02-23T06:38:44;64537.91;;;10.86;84.04
54503;BME280;40411;50.090;21.954;2024-02-23T06:41:11;64551.03;;;10.79;85.29
54503;BME280;40411;50.090;21.954;2024-02-23T06:43:37;64476.44;;;10.96;85.50
54503;BME280;40411;50.090;21.954;2024-02-23T06:46:07;64443.50;;;11.05;85.90
54503;BME280;40411;50.090;21.954;2024-02-23T06:48:36;64446.91;;;11.01;85.74
54503;BME280;40411;50.090;21.954;2024-02-23T06:51:06;64426.94;;;11.16;85.98
54503;BME280;40411;50.090;21.954;2024-02-23T06:53:35;64451.44;;;11.14;85.70
54503;BME280;40411;50.090;21.954;2024-02-23T06:56:01;64527.03;;;10.71;87.87
54503;BME280;40411;50.090;21.954;2024-02-23T06:58:27;64520.84;;;10.72;87.39
54503;BME280;40411;50.090;21.954;2024-02-23T07:00:54;64455.44;;;10.87;89.03
54503;BME280;40411;50.090;21.954;2024-02-23T07:03:19;64470.78;;;10.82;89.24
54503;BME280;40411;50.090;21.954;2024-02-23T07:05:45;64476.16;;;10.67;89.94
54503;BME280;40411;50.090;21.954;2024-02-23T07:08:13;64497.81;;;10.63;90.55
54503;BME280;40411;50.090;21.954;2024-02-23T07:10:39;64487.31;;;10.70;91.91
54503;BME280;40411;50.090;21.954;2024-02-23T07:13:05;64464.31;;;10.78;90.53
54503;BME280;40411;50.090;21.954;2024-02-23T07:15:33;64402.19;;;10.95;91.45
54503;BME280;40411;50.090;21.954;2024-02-23T07:17:59;64516.94;;;10.76;92.00
54503;BME280;40411;50.090;21.954;2024-02-23T07:20:25;64465.94;;;10.63;92.45
54503;BME280;40411;50.090;21.954;2024-02-23T07:22:50;64482.16;;;10.63;92.87
54503;BME280;40411;50.090;21.954;2024-02-23T07:25:17;64446.63;;;10.71;93.25
54503;BME280;40411;50.090;21.954;2024-02-23T07:27:44;64477.38;;;10.78;91.87
54503;BME280;40411;50.090;21.954;2024-02-23T07:30:11;64492.66;;;10.56;92.88
54503;BME280;40411;50.090;21.954;2024-02-23T07:32:38;64442.06;;;10.82;92.82
54503;BME280;40411;50.090;21.954;2024-02-23T07:35:04;64453.66;;;10.59;92.82
54503;BME280;40411;50.090;21.954;2024-02-23T07:37:30;64464.72;;;10.52;94.21
54503;BME280;40411;50.090;21.954;2024-02-23T07:39:56;64442.13;;;10.74;92.64
54503;BME280;40411;50.090;21.954;2024-02-23T07:42:21;64433.09;;;10.64;94.26
54503;BME280;40411;50.090;21.954;2024-02-23T07:44:48;64404.47;;;10.73;94.13
54503;BME280;40411;50.090;21.954;2024-02-23T07:47:13;64434.94;;;10.68;95.90
54503;BME280;40411;50.090;21.954;2024-02-23T07:49:39;64404.47;;;10.73;94.78
54503;BME280;40411;50.090;21.954;2024-02-23T07:52:08;64386.66;;;10.81;94.84
54503;BME280;40411;50.090;21.954;2024-02-23T07:54:34;64406.81;;;10.61;95.61
54503;BME280;40411;50.090;21.954;2024-02-23T07:57:01;64364.91;;;10.76;96.20
54503;BME280;40411;50.090;21.954;2024-02-23T07:59:27;64380.56;;;10.76;96.61
54503;BME280;40411;50.090;21.954;2024-02-23T08:01:53;64343.91;;;10.83;97.01
54503;BME280;40411;50.090;21.954;2024-02-23T08:04:21;64294.41;;;11.02;95.40
54503;BME280;40411;50.090;21.954;2024-02-23T08:06:47;64315.63;;;11.07;94.30
54503;BME280;40411;50.090;21.954;2024-02-23T08:09:14;64309.34;;;10.89;96.64
54503;BME280;40411;50.090;21.954;2024-02-23T08:11:40;64437.28;;;10.56;97.61
54503;BME280;40411;50.090;21.954;2024-02-23T08:14:06;64275.44;;;10.99;96.60
54503;BME280;40411;50.090;21.954;2024-02-23T08:16:32;64380.41;;;10.73;96.85
54503;BME280;40411;50.090;21.954;2024-02-23T08:18:58;64254.84;;;11.04;96.57
54503;BME280;40411;50.090;21.954;2024-02-23T08:21:25;64296.91;;;10.83;97.06
54503;BME280;40411;50.090;21.954;2024-02-23T08:23:52;64291.91;;;10.95;95.77
54503;BME280;40411;50.090;21.954;2024-02-23T08:26:18;64325.94;;;10.88;96.55
54503;BME280;40411;50.090;21.954;2024-02-23T08:28:44;64305.19;;;11.07;96.26
54503;BME280;40411;50.090;21.954;2024-02-23T08:31:09;64259.88;;;11.18;94.50
54503;BME280;40411;50.090;21.954;2024-02-23T08:33:35;64271.53;;;11.12;95.28
54503;BME280;40411;50.090;21.954;2024-02-23T08:36:02;64293.00;;;10.96;95.50
54503;BME280;40411;50.090;21.954;2024-02-23T08:38:34;64085.69;;;11.73;93.79
54503;BME280;40411;50.090;21.954;2024-02-23T08:41:00;64207.69;;;11.38;94.62
54503;BME280;40411;50.090;21.954;2024-02-23T08:43:26;64212.31;;;11.28;95.49
54503;BME280;40411;50.090;21.954;2024-02-23T08:45:51;64234.94;;;11.12;95.36
54503;BME280;40411;50.090;21.954;2024-02-23T08:48:17;64217.69;;;11.30;95.30
54503;BME280;40411;50.090;21.954;2024-02-23T08:50:43;64228.41;;;11.26;94.83
54503;BME280;40411;50.090;21.954;2024-02-23T08:53:09;64193.06;;;11.29;94.81
54503;BME280;40411;50.090;21.954;2024-02-23T08:55:35;64148.28;;;11.51;94.77
54503;BME280;40411;50.090;21.954;2024-02-23T08:58:02;64190.31;;;11.27;94.86
54503;BME280;40411;50.090;21.954;2024-02-23T09:00:27;64081.41;;;11.61;94.03
54503;BME280;40411;50.090;21.954;2024-02-23T09:02:54;64265.91;;;11.14;96.00
54503;BME280;40411;50.090;21.954;2024-02-23T09:05:20;64179.91;;;11.46;95.15
54503;BME280;40411;50.090;21.954;2024-02-23T09:07:46;64063.00;;;11.59;95.65
54503;BME280;40411;50.090;21.954;2024-02-23T09:10:12;64091.78;;;11.78;93.91
54503;BME280;40411;50.090;21.954;2024-02-23T09:12:38;64015.94;;;11.78;94.09
54503;BME280;40411;50.090;21.954;2024-02-23T09:15:04;63937.13;;;12.22;93.15
54503;BME280;40411;50.090;21.954;2024-02-23T09:17:31;64101.09;;;11.58;93.98
54503;BME280;40411;50.090;21.954;2024-02-23T09:19:56;64002.44;;;12.10;92.76
54503;BME280;40411;50.090;21.954;2024-02-23T09:22:22;64033.84;;;11.90;93.59
54503;BME280;40411;50.090;21.954;2024-02-23T09:24:49;64092.34;;;11.79;93.71
54503;BME280;40411;50.090;21.954;2024-02-23T09:27:15;64023.66;;;11.95;93.06
54503;BME280;40411;50.090;21.954;2024-02-23T09:29:41;64095.47;;;11.70;93.67
54503;BME280;40411;50.090;21.954;2024-02-23T09:32:10;64150.94;;;11.60;93.86
54503;BME280;40411;50.090;21.954;2024-02-23T09:34:37;64058.22;;;11.86;93.19
54503;BME280;40411;50.090;21.954;2024-02-23T09:37:03;64123.16;;;11.69;93.22
54503;BME280;40411;50.090;21.954;2024-02-23T09:39:28;64117.50;;;11.71;92.92
54503;BME280;40411;50.090;21.954;2024-02-23T09:42:01;64123.72;;;11.79;92.16
54503;BME280;40411;50.090;21.954;2024-02-23T09:44:32;64050.38;;;12.05;90.05
54503;BME280;40411;50.090;21.954;2024-02-23T09:47:05;64136.81;;;11.79;90.87
54503;BME280;40411;50.090;21.954;2024-02-23T09:49:39;64102.41;;;12.00;90.94
54503;BME280;40411;50.090;21.954;2024-02-23T09:52:07;64067.44;;;12.02;90.15
54503;BME280;40411;50.090;21.954;2024-02-23T09:54:33;64068.00;;;12.02;89.64
54503;BME280;40411;50.090;21.954;2024-02-23T09:57:01;64049.97;;;12.07;91.29
54503;BME280;40411;50.090;21.954;2024-02-23T09:59:29;64127.72;;;11.85;90.60
54503;BME280;40411;50.090;21.954;2024-02-23T10:01:57;64106.78;;;11.85;92.03
54503;BME280;40411;50.090;21.954;2024-02-23T10:04:24;64112.03;;;11.85;92.16
54503;BME280;40411;50.090;21.954;2024-02-23T10:06:51;63950.75;;;12.22;91.38
54503;BME280;40411;50.090;21.954;2024-02-23T10:09:17;64016.75;;;12.03;92.95
54503;BME280;40411;50.090;21.954;2024-02-23T10:11:44;63913.69;;;12.34;91.61
54503;BME280;40411;50.090;21.954;2024-02-23T10:14:10;63891.31;;;12.47;89.85
54503;BME280;40411;50.090;21.954;2024-02-23T10:16:37;63785.03;;;12.80;88.56
54503;BME280;40411;50.090;21.954;2024-02-23T10:19:03;63989.19;;;12.36;88.45
54503;BME280;40411;50.090;21.954;2024-02-23T10:21:29;63685.34;;;13.12;87.91
54503;BME280;40411;50.090;21.954;2024-02-23T10:23:55;63589.53;;;13.37;86.87
54503;BME280;40411;50.090;21.954;2024-02-23T10:26:22;63663.75;;;13.21;85.07
54503;BME280;40411;50.090;21.954;2024-02-23T10:28:48;63753.81;;;13.07;85.19
54503;BME280;40411;50.090;21.954;2024-02-23T10:31:14;63794.72;;;12.96;86.23
54503;BME280;40411;50.090;21.954;2024-02-23T10:33:41;63888.47;;;12.74;84.88
54503;BME280;40411;50.090;21.954;2024-02-23T10:36:07;63786.72;;;12.94;84.76
54503;BME280;40411;50.090;21.954;2024-02-23T10:38:38;63898.88;;;12.84;84.55
54503;BME280;40411;50.090;21.954;2024-02-23T10:41:07;63714.91;;;13.27;82.69
54503;BME280;40411;50.090;21.954;2024-02-23T10:43:44;63765.50;;;13.11;83.72
54503;BME280;40411;50.090;21.954;2024-02-23T10:46:12;63917.34;;;12.86;83.49
54503;BME280;40411;50.090;21.954;2024-02-23T10:48:44;63999.34;;;12.50;85.61
54503;BME280;40411;50.090;21.954;2024-02-23T10:51:14;63988.31;;;12.60;84.25
54503;BME280;40411;50.090;21.954;2024-02-23T10:53:40;63945.56;;;12.64;83.46
54503;BME280;40411;50.090;21.954;2024-02-23T10:56:07;63898.69;;;12.69;84.61
54503;BME280;40411;50.090;21.954;2024-02-23T10:58:33;63892.13;;;12.85;84.70
54503;BME280;40411;50.090;21.954;2024-02-23T11:01:05;63830.84;;;12.96;83.58
54503;BME280;40411;50.090;21.954;2024-02-23T11:03:33;63836.88;;;13.02;83.38
54503;BME280;40411;50.090;21.954;2024-02-23T11:06:00;63766.97;;;13.19;83.34
54503;BME280;40411;50.090;21.954;2024-02-23T11:08:29;63829.88;;;12.97;83.47
54503;BME280;40411;50.090;21.954;2024-02-23T11:10:55;63816.97;;;13.12;84.02
54503;BME280;40411;50.090;21.954;2024-02-23T11:13:30;63880.66;;;12.86;85.03
54503;BME280;40411;50.090;21.954;2024-02-23T11:16:07;64028.16;;;12.41;85.57
54503;BME280;40411;50.090;21.954;2024-02-23T11:18:35;64017.00;;;12.47;86.49
54503;BME280;40411;50.090;21.954;2024-02-23T11:21:03;63984.44;;;12.56;85.24
54503;BME280;40411;50.090;21.954;2024-02-23T11:23:49;63787.75;;;13.05;84.54
54503;BME280;40411;50.090;21.954;2024-02-23T11:26:18;63892.84;;;12.78;83.96
54503;BME280;40411;50.090;21.954;2024-02-23T11:28:52;63808.84;;;13.07;83.41
54503;BME280;40411;50.090;21.954;2024-02-23T11:31:29;63804.41;;;13.13;83.04
54503;BME280;40411;50.090;21.954;2024-02-23T11:33:57;63824.31;;;13.02;83.02
54503;BME280;40411;50.090;21.954;2024-02-23T11:36:32;63847.00;;;12.94;83.12
54503;BME280;40411;50.090;21.954;2024-02-23T11:38:59;63862.41;;;12.99;84.06
54503;BME280;40411;50.090;21.954;2024-02-23T11:41:27;63885.91;;;12.86;84.59
54503;BME280;40411;50.090;21.954;2024-02-23T11:43:55;63824.88;;;13.03;83.68
54503;BME280;40411;50.090;21.954;2024-02-23T11:46:21;63884.41;;;12.87;83.50
54503;BME280;40411;50.090;21.954;2024-02-23T11:48:48;63968.44;;;12.61;84.43
54503;BME280;40411;50.090;21.954;2024-02-23T11:51:22;63780.59;;;13.20;82.32
54503;BME280;40411;50.090;21.954;2024-02-23T11:53:50;63756.56;;;13.32;82.51
54503;BME280;40411;50.090;21.954;2024-02-23T11:56:16;63875.25;;;12.93;83.38
54503;BME280;40411;50.090;21.954;2024-02-23T11:58:46;64086.03;;;12.36;84.95
54503;BME280;40411;50.090;21.954;2024-02-23T12:01:12;63952.09;;;12.89;83.57
54503;BME280;40411;50.090;21.954;2024-02-23T12:03:38;64074.59;;;12.28;85.38
54503;BME280;40411;50.090;21.954;2024-02-23T12:06:06;63986.63;;;12.68;83.50
54503;BME280;40411;50.090;21.954;2024-02-23T12:08:33;63876.78;;;12.92;82.76
54503;BME280;40411;50.090;21.954;2024-02-23T12:11:05;63888.78;;;12.91;82.84
54503;BME280;40411;50.090;21.954;2024-02-23T12:13:35;63828.41;;;13.11;82.20
54503;BME280;40411;50.090;21.954;2024-02-23T12:16:01;63806.59;;;13.15;82.16
54503;BME280;40411;50.090;21.954;2024-02-23T12:18:28;63842.53;;;13.00;83.48
54503;BME280;40411;50.090;21.954;2024-02-23T12:21:01;63834.84;;;12.92;82.65
54503;BME280;40411;50.090;21.954;2024-02-23T12:23:43;63838.63;;;13.06;82.31
54503;BME280;40411;50.090;21.954;2024-02-23T12:26:15;63927.16;;;12.83;82.93
54503;BME280;40411;50.090;21.954;2024-02-23T12:28:43;63922.59;;;12.86;82.35
54503;BME280;40411;50.090;21.954;2024-02-23T12:31:09;63760.16;;;13.43;81.14
54503;BME280;40411;50.090;21.954;2024-02-23T12:33:37;63740.97;;;13.47;79.52
54503;BME280;40411;50.090;21.954;2024-02-23T12:36:06;63878.69;;;12.99;81.08
54503;BME280;40411;50.090;21.954;2024-02-23T12:38:32;63829.56;;;13.24;80.39
54503;BME280;40411;50.090;21.954;2024-02-23T12:41:00;63840.22;;;13.17;81.20
54503;BME280;40411;50.090;21.954;2024-02-23T12:43:26;63676.75;;;13.65;79.08
54503;BME280;40411;50.090;21.954;2024-02-23T12:45:53;63781.28;;;13.23;81.11
54503;BME280;40411;50.090;21.954;2024-02-23T12:48:20;63861.63;;;13.15;81.24